WXM80 ListenWXM80 Stop

You find our weather info also at:

UK Metoffice

WeatherCloud

Weather Underground

Northeastern Weather Network

AWEKAS

Citizen Weather Observer Program (CWOP)

HAMweather, WeatherForYou, PWS Weather


Weather Underground History page Text

Daily Summary for September 7, 2016 Units:  English    Metric   Both
« Previous Day
Next Day »
Daily Weekly Monthly Yearly Custom
  High: Low: Average:
Temperature: 77.0 °F 70.7 °F 73.3 °F
Dew Point: 73.1 °F 69.3 °F 70.8 °F
Humidity: 97 % 85 % 92 %
Wind Speed: 10.4 mph 0.0 mph 4.2 mph
Wind Gust: 19.6 mph - -
Wind:- - ENE
Pressure: 29.96 in 29.90 in -
Precipitation: 0.04 in    
Historical Graphs
 
 
Tabular Data for September 7, 2016
Time Temperature Dew Point Pressure Wind Wind Speed Wind Gust Humidity Rainfall Rate (Hourly)
00:03 70.9 °F 69.7 °F 29.94 in ENE 3.9 mph 5.8 mph 96 % 0.04 in
00:08 70.9 °F 69.7 °F 29.94 in ENE 3.0 mph 3.5 mph 96 % 0.04 in
00:13 71.0 °F 69.8 °F 29.94 in ENE 6.9 mph 10.4 mph 96 % 0.03 in
00:18 71.0 °F 69.8 °F 29.94 in ENE 4.4 mph 5.0 mph 96 % 0.03 in
00:23 71.1 °F 69.9 °F 29.94 in East 6.2 mph 11.5 mph 96 % 0.01 in
00:29 71.0 °F 69.8 °F 29.94 in ENE 6.2 mph 7.0 mph 96 % 0.01 in
00:34 71.0 °F 69.8 °F 29.94 in ENE 5.9 mph 11.5 mph 96 % 0.01 in
00:39 70.9 °F 69.7 °F 29.95 in East 8.1 mph 11.5 mph 96 % 0.01 in
00:44 70.9 °F 69.7 °F 29.95 in East 4.6 mph 9.2 mph 96 % 0.01 in
00:49 71.0 °F 70.1 °F 29.94 in ENE 6.7 mph 12.7 mph 97 % 0.01 in
00:54 71.0 °F 70.1 °F 29.94 in ENE 5.0 mph 10.0 mph 97 % 0.01 in
00:59 71.0 °F 70.1 °F 29.94 in ENE 7.5 mph 11.5 mph 97 % 0.01 in
01:09 71.1 °F 70.2 °F 29.94 in East 7.8 mph 9.2 mph 97 % 0.01 in
01:14 71.0 °F 69.8 °F 29.94 in NE 8.0 mph 10.0 mph 96 % 0.01 in
01:20 71.0 °F 69.8 °F 29.94 in East 6.4 mph 8.0 mph 96 % 0.01 in
01:25 70.9 °F 69.7 °F 29.94 in NE 5.0 mph 9.2 mph 96 % 0.00 in
01:30 70.9 °F 69.7 °F 29.94 in ENE 5.9 mph 8.1 mph 96 % 0.00 in
01:35 70.9 °F 69.7 °F 29.93 in ENE 6.9 mph 11.5 mph 96 % 0.00 in
01:40 71.0 °F 69.8 °F 29.94 in ENE 8.5 mph 11.5 mph 96 % 0.00 in
01:45 71.0 °F 69.8 °F 29.93 in ENE 4.9 mph 8.1 mph 96 % 0.00 in
01:50 71.0 °F 69.8 °F 29.93 in ENE 4.9 mph 9.2 mph 96 % 0.00 in
01:55 71.0 °F 69.8 °F 29.93 in East 7.2 mph 11.5 mph 96 % 0.00 in
02:00 71.0 °F 69.8 °F 29.93 in ENE 4.3 mph 11.5 mph 96 % 0.00 in
02:05 71.0 °F 69.8 °F 29.93 in ENE 4.6 mph 8.1 mph 96 % 0.00 in
02:11 71.0 °F 69.8 °F 29.93 in ENE 3.0 mph 10.0 mph 96 % 0.00 in
02:16 71.0 °F 69.8 °F 29.93 in ENE 5.0 mph 12.0 mph 96 % 0.00 in
02:21 70.9 °F 69.7 °F 29.93 in ENE 5.0 mph 10.0 mph 96 % 0.00 in
02:26 70.8 °F 69.6 °F 29.93 in ENE 7.0 mph 12.0 mph 96 % 0.00 in
02:31 70.8 °F 69.6 °F 29.93 in ENE 5.0 mph 8.0 mph 96 % 0.00 in
02:36 70.9 °F 69.7 °F 29.93 in ENE 7.0 mph 12.0 mph 96 % 0.00 in
02:41 71.0 °F 69.8 °F 29.92 in ENE 8.0 mph 14.0 mph 96 % 0.00 in
02:46 71.0 °F 69.8 °F 29.92 in ENE 7.0 mph 12.0 mph 96 % 0.00 in
02:51 71.0 °F 69.8 °F 29.92 in ENE 8.0 mph 13.0 mph 96 % 0.00 in
02:56 71.1 °F 69.9 °F 29.93 in ENE 7.0 mph 14.0 mph 96 % 0.00 in
03:01 71.2 °F 70.0 °F 29.92 in ENE 5.5 mph 13.8 mph 96 % 0.00 in
03:06 71.2 °F 70.0 °F 29.92 in ENE 8.0 mph 14.0 mph 96 % 0.00 in
03:11 71.2 °F 70.0 °F 29.92 in ENE 7.0 mph 12.0 mph 96 % 0.00 in
03:16 71.2 °F 70.0 °F 29.92 in ENE 10.0 mph 14.0 mph 96 % 0.00 in
03:21 71.2 °F 69.7 °F 29.92 in ENE 9.0 mph 13.0 mph 95 % 0.00 in
03:26 71.3 °F 69.8 °F 29.92 in ENE 6.0 mph 15.0 mph 95 % 0.00 in
03:31 71.3 °F 69.8 °F 29.92 in ENE 6.0 mph 14.0 mph 95 % 0.00 in
03:36 71.3 °F 69.8 °F 29.92 in East 8.0 mph 9.2 mph 95 % 0.00 in
03:41 71.4 °F 69.9 °F 29.92 in ENE 8.0 mph 12.0 mph 95 % 0.00 in
03:47 71.4 °F 69.9 °F 29.93 in ENE 4.6 mph 13.8 mph 95 % 0.00 in
03:52 71.4 °F 69.9 °F 29.93 in ENE 6.8 mph 10.0 mph 95 % 0.00 in
03:58 71.4 °F 69.9 °F 29.93 in ENE 6.1 mph 9.2 mph 95 % 0.00 in
04:03 71.4 °F 69.9 °F 29.93 in ENE 5.4 mph 10.4 mph 95 % 0.00 in
04:08 71.3 °F 69.8 °F 29.92 in ENE 5.9 mph 9.2 mph 95 % 0.00 in
04:13 71.4 °F 69.9 °F 29.92 in ENE 3.9 mph 5.8 mph 95 % 0.00 in
04:18 71.4 °F 69.9 °F 29.92 in NE 3.3 mph 4.6 mph 95 % 0.00 in
04:23 71.5 °F 70.0 °F 29.92 in ENE 3.8 mph 5.0 mph 95 % 0.00 in
04:28 71.4 °F 69.9 °F 29.93 in ENE 5.0 mph 8.1 mph 95 % 0.00 in
04:33 71.5 °F 70.0 °F 29.93 in ENE 3.5 mph 4.0 mph 95 % 0.00 in
04:43 71.5 °F 70.0 °F 29.93 in ENE 5.9 mph 6.9 mph 95 % 0.00 in
04:49 71.5 °F 70.0 °F 29.93 in ENE 7.6 mph 8.1 mph 95 % 0.00 in
04:54 71.5 °F 69.7 °F 29.93 in ENE 4.8 mph 6.9 mph 94 % 0.00 in
04:59 71.6 °F 69.8 °F 29.93 in ENE 7.1 mph 10.4 mph 94 % 0.00 in
05:04 71.6 °F 70.1 °F 29.93 in NE 3.4 mph 6.9 mph 95 % 0.00 in
05:09 71.6 °F 70.1 °F 29.93 in NNE 6.9 mph 10.4 mph 95 % 0.00 in
05:14 71.5 °F 70.0 °F 29.93 in North 7.7 mph 12.7 mph 95 % 0.00 in
05:19 71.5 °F 70.0 °F 29.93 in North 6.2 mph 10.4 mph 95 % 0.00 in
05:24 71.3 °F 69.8 °F 29.93 in North 8.9 mph 12.7 mph 95 % 0.00 in
05:29 71.2 °F 69.7 °F 29.93 in NNE 9.5 mph 15.0 mph 95 % 0.01 in
05:34 71.1 °F 69.6 °F 29.93 in NNE 8.4 mph 12.7 mph 95 % 0.01 in
05:40 71.0 °F 69.5 °F 29.94 in North 8.2 mph 16.1 mph 95 % 0.01 in
05:45 71.0 °F 69.5 °F 29.94 in NNE 7.1 mph 13.8 mph 95 % 0.01 in
05:50 71.0 °F 69.5 °F 29.94 in NE 10.0 mph 19.6 mph 95 % 0.01 in
05:55 71.0 °F 69.5 °F 29.94 in NNE 9.2 mph 16.1 mph 95 % 0.01 in
06:00 70.9 °F 69.4 °F 29.94 in NNE 8.6 mph 12.7 mph 95 % 0.01 in
06:05 70.9 °F 69.4 °F 29.94 in NNE 8.0 mph 13.8 mph 95 % 0.01 in
06:10 70.8 °F 69.3 °F 29.94 in ENE 4.8 mph 9.2 mph 95 % 0.01 in
06:15 70.8 °F 69.3 °F 29.94 in NNE 6.2 mph 11.5 mph 95 % 0.02 in
06:20 70.8 °F 69.6 °F 29.94 in NNE 5.8 mph 9.2 mph 96 % 0.02 in
06:25 70.8 °F 69.6 °F 29.94 in NNE 6.3 mph 10.4 mph 96 % 0.01 in
06:31 70.8 °F 69.6 °F 29.94 in NE 5.0 mph 12.0 mph 96 % 0.00 in
06:36 70.8 °F 69.6 °F 29.94 in NE 5.0 mph 12.0 mph 96 % 0.00 in
06:41 70.7 °F 69.5 °F 29.94 in NE 5.0 mph 9.0 mph 96 % 0.00 in
06:46 70.7 °F 69.5 °F 29.94 in NE 6.0 mph 13.0 mph 96 % 0.00 in
06:51 70.7 °F 69.5 °F 29.94 in NE 6.0 mph 13.0 mph 96 % 0.00 in
06:56 70.7 °F 69.5 °F 29.94 in ENE 7.0 mph 13.0 mph 96 % 0.00 in
07:06 70.7 °F 69.5 °F 29.94 in ENE 7.2 mph 11.5 mph 96 % 0.02 in
07:11 70.8 °F 69.6 °F 29.94 in ENE 4.0 mph 9.2 mph 96 % 0.01 in
07:16 70.8 °F 69.6 °F 29.94 in ENE 5.4 mph 11.5 mph 96 % 0.01 in
07:21 70.9 °F 69.4 °F 29.94 in ENE 6.4 mph 10.4 mph 95 % 0.01 in
07:26 71.0 °F 69.8 °F 29.94 in ENE 7.8 mph 13.8 mph 96 % 0.01 in
07:31 71.0 °F 69.8 °F 29.94 in NE 7.2 mph 11.5 mph 96 % 0.01 in
07:36 71.2 °F 69.7 °F 29.94 in ENE 8.0 mph 11.5 mph 95 % 0.00 in
07:41 71.3 °F 69.8 °F 29.94 in East 9.5 mph 15.0 mph 95 % 0.00 in
07:46 71.4 °F 69.9 °F 29.94 in ENE 6.7 mph 9.2 mph 95 % 0.00 in
07:52 71.5 °F 70.0 °F 29.95 in ENE 6.7 mph 10.4 mph 95 % 0.00 in
07:57 71.7 °F 70.2 °F 29.95 in ENE 6.5 mph 11.5 mph 95 % 0.00 in
08:02 71.7 °F 69.9 °F 29.95 in ENE 6.3 mph 10.4 mph 94 % 0.00 in
08:07 71.7 °F 69.9 °F 29.95 in NE 4.8 mph 8.1 mph 94 % 0.00 in
08:12 71.8 °F 69.7 °F 29.95 in NE 6.1 mph 10.4 mph 93 % 0.00 in
08:17 71.8 °F 69.7 °F 29.95 in ENE 6.6 mph 9.2 mph 93 % 0.00 in
08:22 71.9 °F 70.1 °F 29.95 in NE 3.4 mph 6.9 mph 94 % 0.00 in
08:27 72.1 °F 70.3 °F 29.95 in NNE 5.4 mph 12.0 mph 94 % 0.00 in
08:32 72.2 °F 70.4 °F 29.95 in ENE 5.2 mph 9.2 mph 94 % 0.00 in
08:37 72.3 °F 70.5 °F 29.95 in North 6.0 mph 11.5 mph 94 % 0.00 in
08:43 72.3 °F 70.2 °F 29.95 in NE 7.0 mph 10.4 mph 93 % 0.00 in
08:48 72.2 °F 70.1 °F 29.95 in NNE 7.2 mph 14.0 mph 93 % 0.00 in
08:53 72.2 °F 70.1 °F 29.95 in North 7.4 mph 12.7 mph 93 % 0.00 in
08:58 72.1 °F 70.0 °F 29.95 in NNE 6.1 mph 10.4 mph 93 % 0.00 in
09:03 72.2 °F 70.1 °F 29.95 in NNE 6.3 mph 11.0 mph 93 % 0.00 in
09:08 72.3 °F 70.2 °F 29.95 in NNE 5.7 mph 12.0 mph 93 % 0.00 in
09:13 72.4 °F 70.3 °F 29.95 in NNE 4.5 mph 9.2 mph 93 % 0.00 in
09:18 72.6 °F 70.5 °F 29.95 in NNE 8.9 mph 12.7 mph 93 % 0.00 in
09:23 72.6 °F 70.1 °F 29.96 in NNE 10.4 mph 12.7 mph 92 % 0.00 in
09:28 72.7 °F 70.2 °F 29.95 in NNE 9.2 mph 11.5 mph 92 % 0.00 in
09:33 72.7 °F 70.2 °F 29.96 in North 7.4 mph 13.0 mph 92 % 0.00 in
09:39 72.8 °F 70.3 °F 29.96 in North 8.6 mph 13.0 mph 92 % 0.00 in
09:44 73.0 °F 70.5 °F 29.95 in NE 7.7 mph 15.0 mph 92 % 0.00 in
09:49 73.0 °F 70.5 °F 29.95 in NE 8.4 mph 16.1 mph 92 % 0.00 in
09:54 73.0 °F 70.2 °F 29.95 in NNE 6.0 mph 12.7 mph 91 % 0.00 in
09:59 73.2 °F 70.7 °F 29.95 in NE 8.6 mph 16.1 mph 92 % 0.00 in
10:04 73.3 °F 70.5 °F 29.95 in ENE 9.3 mph 13.8 mph 91 % 0.00 in
10:09 73.4 °F 70.6 °F 29.95 in NNE 7.6 mph 13.8 mph 91 % 0.00 in
10:14 73.5 °F 70.7 °F 29.95 in North 8.1 mph 13.8 mph 91 % 0.00 in
10:19 73.7 °F 70.6 °F 29.95 in NNE 8.3 mph 13.8 mph 90 % 0.00 in
10:24 73.8 °F 70.7 °F 29.95 in NNE 9.6 mph 13.8 mph 90 % 0.00 in
10:30 73.9 °F 70.8 °F 29.95 in NNE 7.5 mph 13.8 mph 90 % 0.00 in
10:35 73.9 °F 70.5 °F 29.95 in NNE 6.6 mph 13.8 mph 89 % 0.00 in
10:40 74.0 °F 70.9 °F 29.95 in ENE 6.3 mph 11.5 mph 90 % 0.00 in
10:45 74.1 °F 71.0 °F 29.96 in NE 7.2 mph 11.5 mph 90 % 0.00 in
10:50 74.1 °F 71.0 °F 29.95 in East 3.9 mph 8.1 mph 90 % 0.00 in
10:55 74.2 °F 71.1 °F 29.95 in ENE 5.5 mph 10.4 mph 90 % 0.00 in
11:00 74.3 °F 70.8 °F 29.95 in NNE 5.7 mph 10.4 mph 89 % 0.00 in
11:05 74.4 °F 70.9 °F 29.95 in NNE 4.6 mph 6.9 mph 89 % 0.00 in
11:10 74.6 °F 71.1 °F 29.95 in NE 3.7 mph 11.5 mph 89 % 0.00 in
11:15 74.7 °F 71.2 °F 29.95 in NE 7.9 mph 12.7 mph 89 % 0.00 in
11:21 74.7 °F 71.2 °F 29.95 in NNE 8.0 mph 12.0 mph 89 % 0.00 in
11:26 74.7 °F 71.2 °F 29.95 in NNE 8.0 mph 13.0 mph 89 % 0.00 in
11:31 74.8 °F 71.3 °F 29.96 in NNE 6.0 mph 13.0 mph 89 % 0.00 in
11:36 75.0 °F 71.5 °F 29.96 in NNE 5.0 mph 12.0 mph 89 % 0.00 in
11:41 75.0 °F 71.6 °F 29.95 in NNE 7.0 mph 13.0 mph 89 % 0.00 in
11:46 75.0 °F 71.2 °F 29.96 in NNE 8.0 mph 13.0 mph 88 % 0.00 in
11:51 75.0 °F 71.2 °F 29.95 in NNE 7.0 mph 12.0 mph 88 % 0.00 in
11:56 74.9 °F 71.1 °F 29.95 in NNE 7.4 mph 12.0 mph 88 % 0.00 in
12:01 74.8 °F 71.3 °F 29.95 in NNE 4.8 mph 8.1 mph 89 % 0.00 in
12:06 74.8 °F 71.3 °F 29.95 in NNE 6.8 mph 11.5 mph 89 % 0.00 in
12:11 74.9 °F 71.4 °F 29.95 in NNE 6.8 mph 9.2 mph 89 % 0.00 in
12:16 74.9 °F 71.4 °F 29.95 in North 6.4 mph 8.1 mph 89 % 0.00 in
12:21 74.9 °F 71.1 °F 29.95 in NNE 6.2 mph 11.5 mph 88 % 0.00 in
12:26 75.0 °F 71.2 °F 29.95 in NNE 6.1 mph 8.1 mph 88 % 0.00 in
12:31 75.0 °F 71.2 °F 29.95 in NNE 5.0 mph 9.2 mph 88 % 0.00 in
12:36 75.1 °F 71.3 °F 29.95 in NNE 5.3 mph 10.0 mph 88 % 0.00 in
12:41 75.1 °F 71.3 °F 29.95 in NNE 3.2 mph 4.0 mph 88 % 0.00 in
12:47 75.3 °F 71.8 °F 29.95 in North 4.7 mph 9.2 mph 89 % 0.00 in
12:52 75.4 °F 71.3 °F 29.95 in North 3.9 mph 13.8 mph 87 % 0.00 in
13:02 75.5 °F 71.4 °F 29.95 in NNE 5.4 mph 11.5 mph 87 % 0.00 in
13:07 75.5 °F 71.0 °F 29.95 in North 4.6 mph 10.4 mph 86 % 0.00 in
13:12 75.5 °F 71.4 °F 29.95 in NNE 5.3 mph 11.5 mph 87 % 0.00 in
13:17 75.5 °F 71.4 °F 29.95 in NNW 4.3 mph 9.2 mph 87 % 0.00 in
13:22 75.5 °F 71.4 °F 29.95 in NE 6.1 mph 10.0 mph 87 % 0.00 in
13:27 75.6 °F 71.5 °F 29.95 in NNE 7.1 mph 11.5 mph 87 % 0.00 in
13:32 76.1 °F 71.6 °F 29.95 in ENE 5.1 mph 10.4 mph 86 % 0.00 in
13:37 76.3 °F 71.8 °F 29.95 in NNE 5.5 mph 11.5 mph 86 % 0.00 in
13:43 76.1 °F 71.6 °F 29.95 in NNE 4.6 mph 6.9 mph 86 % 0.00 in
13:48 75.9 °F 71.8 °F 29.95 in NNE 4.8 mph 9.2 mph 87 % 0.00 in
13:53 75.9 °F 71.8 °F 29.95 in North 6.8 mph 10.4 mph 87 % 0.00 in
14:03 76.1 °F 71.9 °F 29.94 in ENE 2.2 mph 4.6 mph 87 % 0.00 in
14:13 76.2 °F 71.7 °F 29.94 in ENE 4.4 mph 5.8 mph 86 % 0.00 in
14:18 76.3 °F 71.8 °F 29.93 in East 3.6 mph 6.9 mph 86 % 0.00 in
14:23 76.3 °F 71.8 °F 29.93 in NE 3.3 mph 5.8 mph 86 % 0.00 in
14:28 76.4 °F 71.9 °F 29.94 in NNE 4.4 mph 6.9 mph 86 % 0.00 in
14:33 76.3 °F 71.8 °F 29.93 in NNE 2.3 mph 3.5 mph 86 % 0.00 in
14:38 76.3 °F 71.5 °F 29.93 in NNE 4.3 mph 5.8 mph 85 % 0.00 in
14:44 76.3 °F 71.5 °F 29.93 in NE 4.6 mph 5.8 mph 85 % 0.00 in
14:49 76.3 °F 71.8 °F 29.93 in NE 3.6 mph 4.6 mph 86 % 0.00 in
14:54 76.3 °F 71.8 °F 29.93 in ENE 3.2 mph 5.8 mph 86 % 0.00 in
15:04 76.5 °F 71.7 °F 29.93 in NE 2.8 mph 4.6 mph 85 % 0.00 in
15:09 76.6 °F 71.7 °F 29.93 in NNE 3.2 mph 6.9 mph 85 % 0.00 in
15:14 76.7 °F 71.8 °F 29.93 in ENE 2.0 mph 3.5 mph 85 % 0.00 in
15:19 76.7 °F 71.8 °F 29.93 in East 2.4 mph 6.9 mph 85 % 0.00 in
15:24 76.8 °F 71.9 °F 29.93 in East 2.8 mph 3.5 mph 85 % 0.00 in
15:29 76.6 °F 71.7 °F 29.93 in East 2.3 mph 3.5 mph 85 % 0.00 in
15:35 76.4 °F 71.9 °F 29.93 in East 2.6 mph 3.5 mph 86 % 0.00 in
15:40 76.2 °F 72.0 °F 29.92 in East 1.7 mph 3.5 mph 87 % 0.00 in
15:45 76.1 °F 71.9 °F 29.93 in East 2.3 mph 3.5 mph 87 % 0.00 in
15:50 75.8 °F 72.0 °F 29.93 in ESE 1.2 mph 2.3 mph 88 % 0.00 in
15:55 75.6 °F 72.1 °F 29.93 in ESE 0.4 mph 1.2 mph 89 % 0.00 in
16:00 75.6 °F 72.1 °F 29.93 in Calm     89 % 0.00 in
16:05 75.5 °F 72.0 °F 29.92 in Calm     89 % 0.00 in
16:10 75.6 °F 72.5 °F 29.92 in Calm     90 % 0.00 in
16:15 75.6 °F 72.5 °F 29.92 in ESE 0.3 mph 2.0 mph 90 % 0.00 in
16:20 75.7 °F 72.2 °F 29.92 in ESE 0.2 mph 1.2 mph 89 % 0.00 in
16:26 75.8 °F 72.3 °F 29.92 in Calm   1.0 mph 89 % 0.00 in
16:31 76.0 °F 72.5 °F 29.92 in Calm   2.0 mph 89 % 0.00 in
16:36 76.3 °F 72.8 °F 29.92 in ESE 0.6 mph 1.2 mph 89 % 0.00 in
16:41 76.4 °F 72.6 °F 29.92 in East 0.4 mph 2.3 mph 88 % 0.00 in
16:46 76.5 °F 72.3 °F 29.92 in NNE 1.2 mph 2.3 mph 87 % 0.00 in
16:51 76.6 °F 72.4 °F 29.92 in NNE 1.3 mph 2.3 mph 87 % 0.00 in
16:56 76.5 °F 72.7 °F 29.91 in NNE 1.2 mph 2.3 mph 88 % 0.00 in
17:01 76.6 °F 73.1 °F 29.92 in NE 1.8 mph 2.3 mph 89 % 0.00 in
17:06 76.7 °F 72.9 °F 29.92 in NE 1.3 mph 2.3 mph 88 % 0.00 in
17:11 76.7 °F 72.9 °F 29.91 in NE 1.6 mph 3.5 mph 88 % 0.00 in
17:16 76.8 °F 73.0 °F 29.91 in ENE 1.6 mph 2.3 mph 88 % 0.00 in
17:22 76.9 °F 73.1 °F 29.91 in ENE 1.7 mph 2.3 mph 88 % 0.00 in
17:27 77.0 °F 72.8 °F 29.91 in ENE 1.2 mph 3.5 mph 87 % 0.00 in
17:32 76.9 °F 72.7 °F 29.91 in ENE 0.8 mph 3.5 mph 87 % 0.00 in
17:37 76.7 °F 72.5 °F 29.91 in ENE 0.4 mph 1.2 mph 87 % 0.00 in
17:42 76.6 °F 72.4 °F 29.91 in ENE 0.1 mph 1.2 mph 87 % 0.00 in
17:52 76.2 °F 72.4 °F 29.91 in ENE 0.2 mph 1.2 mph 88 % 0.00 in
17:57 76.1 °F 72.3 °F 29.90 in ENE 0.1 mph 1.2 mph 88 % 0.00 in
18:02 75.9 °F 72.1 °F 29.90 in ENE 0.1 mph 1.2 mph 88 % 0.00 in
18:07 75.8 °F 72.3 °F 29.90 in ENE 0.1 mph 1.2 mph 89 % 0.00 in
18:13 75.6 °F 72.1 °F 29.90 in ENE 0.9 mph 2.0 mph 89 % 0.00 in
18:18 75.5 °F 72.0 °F 29.90 in ENE 0.9 mph 2.3 mph 89 % 0.00 in
18:23 75.3 °F 71.8 °F 29.90 in ENE 1.6 mph 3.5 mph 89 % 0.00 in
18:33 74.9 °F 71.8 °F 29.90 in ESE 1.6 mph 2.3 mph 90 % 0.00 in
18:38 74.8 °F 71.7 °F 29.90 in ESE 1.1 mph 2.3 mph 90 % 0.00 in
18:43 74.6 °F 71.5 °F 29.90 in ESE 1.1 mph 2.3 mph 90 % 0.00 in
18:48 74.5 °F 71.7 °F 29.90 in ESE 1.2 mph 2.3 mph 91 % 0.00 in
18:53 74.4 °F 71.6 °F 29.90 in ESE 0.7 mph 1.2 mph 91 % 0.00 in
18:58 74.2 °F 71.4 °F 29.91 in ESE 0.1 mph 1.2 mph 91 % 0.00 in
19:04 74.1 °F 71.3 °F 29.90 in ESE 0.7 mph 1.2 mph 91 % 0.00 in
19:09 73.9 °F 71.1 °F 29.90 in ESE 0.8 mph 2.3 mph 91 % 0.00 in
19:14 73.8 °F 71.3 °F 29.90 in ESE 0.2 mph 1.2 mph 92 % 0.00 in
19:19 73.8 °F 71.3 °F 29.91 in Calm   1.2 mph 92 % 0.00 in
19:24 73.7 °F 71.2 °F 29.91 in ESE 0.1 mph 1.2 mph 92 % 0.00 in
19:29 73.7 °F 71.2 °F 29.91 in Calm     92 % 0.00 in
19:39 73.6 °F 71.1 °F 29.92 in ESE 0.1 mph 1.2 mph 92 % 0.00 in
19:44 73.6 °F 71.1 °F 29.91 in Calm   2.3 mph 92 % 0.00 in
19:49 73.6 °F 71.1 °F 29.91 in Calm     92 % 0.00 in
19:54 73.6 °F 71.4 °F 29.92 in Calm     93 % 0.00 in
19:59 73.6 °F 71.4 °F 29.92 in ENE 0.4 mph 2.3 mph 93 % 0.00 in
20:05 73.6 °F 71.4 °F 29.92 in ENE 0.4 mph 1.2 mph 93 % 0.00 in
20:10 73.6 °F 71.4 °F 29.92 in Calm     93 % 0.00 in
20:15 73.5 °F 71.4 °F 29.93 in Calm   2.3 mph 93 % 0.00 in
20:20 73.5 °F 71.4 °F 29.93 in ENE 0.4 mph 1.2 mph 93 % 0.00 in
20:25 73.4 °F 71.3 °F 29.93 in ENE 0.7 mph 2.3 mph 93 % 0.00 in
20:35 73.4 °F 71.3 °F 29.93 in NE 1.3 mph 3.5 mph 93 % 0.00 in
20:40 73.3 °F 71.2 °F 29.93 in ENE 0.1 mph 1.2 mph 93 % 0.00 in
20:45 73.3 °F 71.2 °F 29.93 in Calm     93 % 0.00 in
20:50 73.3 °F 71.2 °F 29.93 in ENE 0.2 mph 1.2 mph 93 % 0.00 in
20:56 73.3 °F 71.2 °F 29.93 in Calm   3.0 mph 93 % 0.00 in
21:01 73.2 °F 71.1 °F 29.93 in ENE 0.3 mph 1.2 mph 93 % 0.00 in
21:06 73.2 °F 71.1 °F 29.93 in ENE 0.3 mph 2.3 mph 93 % 0.00 in
21:11 73.2 °F 71.1 °F 29.93 in ENE 0.3 mph 1.2 mph 93 % 0.00 in
21:16 73.2 °F 71.1 °F 29.93 in ENE 0.6 mph 2.3 mph 93 % 0.00 in
21:21 73.2 °F 71.1 °F 29.93 in Calm     93 % 0.00 in
21:26 73.2 °F 71.4 °F 29.93 in ENE 0.2 mph 1.2 mph 94 % 0.00 in
21:31 73.2 °F 71.4 °F 29.92 in ENE 0.2 mph 1.2 mph 94 % 0.00 in
21:36 73.2 °F 71.4 °F 29.92 in Calm   1.2 mph 94 % 0.00 in
21:41 73.1 °F 71.0 °F 29.92 in Calm   1.2 mph 93 % 0.00 in
21:46 73.1 °F 71.0 °F 29.93 in Calm   1.2 mph 93 % 0.00 in
21:52 73.0 °F 70.9 °F 29.93 in ENE 0.4 mph 1.2 mph 93 % 0.00 in
21:57 73.0 °F 70.9 °F 29.93 in ENE 0.1 mph 1.2 mph 93 % 0.00 in
22:02 72.9 °F 70.8 °F 29.93 in Calm     93 % 0.00 in
22:07 72.8 °F 70.7 °F 29.93 in Calm   1.2 mph 93 % 0.00 in
22:12 72.8 °F 70.7 °F 29.92 in Calm     93 % 0.00 in
22:17 72.8 °F 70.7 °F 29.92 in Calm     93 % 0.00 in
22:22 72.8 °F 70.7 °F 29.92 in Calm     93 % 0.00 in
22:27 72.7 °F 70.6 °F 29.92 in Calm     93 % 0.00 in
22:32 72.7 °F 70.6 °F 29.92 in Calm     93 % 0.00 in
22:37 72.7 °F 70.6 °F 29.92 in Calm     93 % 0.00 in
22:43 72.6 °F 70.5 °F 29.92 in Calm     93 % 0.00 in
22:53 72.6 °F 70.8 °F 29.91 in ENE 0.1 mph 1.2 mph 94 % 0.00 in
22:58 72.6 °F 70.8 °F 29.91 in Calm     94 % 0.00 in
23:18 72.5 °F 70.7 °F 29.91 in Calm     94 % 0.00 in
23:23 72.5 °F 70.7 °F 29.91 in ENE 0.1 mph 1.2 mph 94 % 0.00 in
23:28 72.5 °F 70.7 °F 29.91 in ENE 0.3 mph 1.2 mph 94 % 0.00 in
23:34 72.5 °F 70.7 °F 29.90 in ENE 0.2 mph 1.2 mph 94 % 0.00 in
23:44 72.5 °F 70.7 °F 29.90 in Calm     94 % 0.00 in
23:49 72.5 °F 70.7 °F 29.90 in Calm     94 % 0.00 in
23:54 72.5 °F 70.7 °F 29.90 in Calm     94 % 0.00 in
23:59 72.4 °F 70.6 °F 29.91 in ENE 0.2 mph 1.2 mph 94 % 0.00 in
Crab Meadow Weather
Compliments of Weather Underground - 3 mb

Script developed by  Jim McMurry - jmcmurry@mwt.net Adapted for the template by  Wim van der Kuil - Leuven-Template.eu

Snow: Snowflakes generally fall from the sky at speeds between one and five miles per hour.